createdAt,value
2018-07-07T00:00:46.241Z,77.30
2018-07-07T00:03:18.142Z,79.09
2018-07-07T00:05:49.406Z,80.13
2018-07-07T00:08:20.523Z,79.44
2018-07-07T00:10:57.479Z,78.65
2018-07-07T00:13:28.689Z,79.68
2018-07-07T00:16:00.927Z,78.89
2018-07-07T00:18:32.144Z,79.06
2018-07-07T00:21:02.480Z,78.54
2018-07-07T00:23:33.718Z,78.91
2018-07-07T00:26:05.179Z,78.90
2018-07-07T00:28:35.778Z,78.67
2018-07-07T00:31:07.439Z,78.35
2018-07-07T00:33:39.054Z,79.16
2018-07-07T00:36:09.808Z,78.57
2018-07-07T00:38:42.175Z,79.07
2018-07-07T00:41:12.644Z,79.42
2018-07-07T00:43:44.044Z,80.10
2018-07-07T00:46:16.221Z,80.14
2018-07-07T00:48:47.835Z,80.38
2018-07-07T00:51:18.267Z,80.40
2018-07-07T00:53:53.354Z,80.77
2018-07-07T00:56:25.281Z,80.75
2018-07-07T00:58:56.436Z,79.60
2018-07-07T01:01:27.574Z,79.80
2018-07-07T01:04:00.015Z,79.70
2018-07-07T01:06:31.488Z,79.32
2018-07-07T01:09:02.675Z,80.06
2018-07-07T01:11:33.412Z,80.36
2018-07-07T01:14:04.544Z,80.77
2018-07-07T01:16:35.376Z,81.63
2018-07-07T01:19:06.246Z,81.82
2018-07-07T01:21:37.954Z,81.63
2018-07-07T01:24:08.732Z,82.43
2018-07-07T01:26:40.498Z,83.25
2018-07-07T01:29:12.253Z,84.29
2018-07-07T01:31:43.482Z,86.29
2018-07-07T01:34:14.394Z,87.61
2018-07-07T01:36:46.491Z,89.05
2018-07-07T01:39:17.148Z,89.31
2018-07-07T01:41:49.264Z,90.33
2018-07-07T01:44:19.903Z,90.94
2018-07-07T01:46:51.386Z,91.08
2018-07-07T01:49:23.284Z,90.56
2018-07-07T01:51:54.568Z,90.73
2018-07-07T01:54:27.225Z,89.86
2018-07-07T01:56:58.587Z,89.73
2018-07-07T01:59:29.261Z,88.99
2018-07-07T02:02:00.038Z,89.64
2018-07-07T02:04:33.213Z,90.24
2018-07-07T02:07:03.846Z,91.25
2018-07-07T02:09:34.800Z,92.08
2018-07-07T02:12:06.794Z,91.43
2018-07-07T02:14:38.362Z,90.52
2018-07-07T02:17:08.931Z,91.42
2018-07-07T02:19:40.297Z,90.77
2018-07-07T02:22:12.562Z,90.89
2018-07-07T02:24:43.957Z,91.57
2018-07-07T02:27:14.673Z,88.06
2018-07-07T02:29:46.396Z,86.55
2018-07-07T02:32:17.522Z,85.33
2018-07-07T02:34:48.187Z,85.46
2018-07-07T02:37:18.610Z,85.73
2018-07-07T02:39:49.692Z,86.04
2018-07-07T02:42:21.109Z,85.93
2018-07-07T02:44:51.445Z,83.97
2018-07-07T02:47:22.094Z,86.03
2018-07-07T02:49:53.826Z,85.14
2018-07-07T02:52:24.020Z,85.99
2018-07-07T02:54:55.195Z,86.86
2018-07-07T02:57:25.540Z,86.89
2018-07-07T02:59:56.267Z,87.07
2018-07-07T03:02:27.177Z,87.86
2018-07-07T03:04:58.181Z,89.63
2018-07-07T03:07:29.166Z,90.10
2018-07-07T03:10:00.002Z,90.34
2018-07-07T03:12:32.516Z,90.91
2018-07-07T03:15:03.541Z,90.78
2018-07-07T03:17:34.043Z,91.21
2018-07-07T03:20:05.107Z,91.00
2018-07-07T03:22:36.784Z,92.26
2018-07-07T03:25:08.102Z,93.11
2018-07-07T03:27:38.453Z,92.68
2018-07-07T03:30:09.897Z,94.25
2018-07-07T03:32:41.458Z,93.85
2018-07-07T03:35:13.752Z,93.48
2018-07-07T03:37:43.883Z,94.01
2018-07-07T03:40:16.850Z,93.59
2018-07-07T03:42:47.495Z,93.72
2018-07-07T03:45:19.135Z,93.96
2018-07-07T03:47:49.743Z,93.73
2018-07-07T03:50:20.583Z,94.35
2018-07-07T03:52:50.955Z,94.13
2018-07-07T03:55:21.626Z,93.64
2018-07-07T03:57:52.426Z,93.61
2018-07-07T04:00:23.266Z,93.13
2018-07-07T04:02:54.643Z,92.90
2018-07-07T04:05:25.360Z,92.16
2018-07-07T04:07:56.064Z,91.47
2018-07-07T04:10:27.968Z,91.07
2018-07-07T04:12:58.393Z,91.15
2018-07-07T04:15:28.743Z,89.93
2018-07-07T04:17:59.135Z,89.21
2018-07-07T04:20:30.217Z,88.86
2018-07-07T04:23:00.921Z,87.88
2018-07-07T04:25:31.258Z,87.18
2018-07-07T04:28:01.647Z,86.83
2018-07-07T04:30:33.045Z,87.07
2018-07-07T04:33:04.361Z,86.18
2018-07-07T04:35:35.314Z,85.88
2018-07-07T04:38:06.674Z,84.35
2018-07-07T04:40:37.151Z,83.12
2018-07-07T04:43:08.461Z,82.26
2018-07-07T04:45:39.627Z,82.32
2018-07-07T04:48:10.493Z,80.33
2018-07-07T04:50:42.229Z,75.04
2018-07-07T04:53:12.767Z,73.50
2018-07-07T04:55:43.695Z,74.57
2018-07-07T04:58:14.062Z,73.36
2018-07-07T05:00:45.096Z,71.55
2018-07-07T05:03:16.189Z,70.18
2018-07-07T05:05:47.455Z,68.07
2018-07-07T05:08:19.167Z,68.27
2018-07-07T05:10:49.693Z,70.30
2018-07-07T05:13:20.885Z,68.35
2018-07-07T05:15:51.751Z,68.06
2018-07-07T05:18:22.555Z,67.45
2018-07-07T05:20:53.544Z,68.71
2018-07-07T05:23:24.154Z,67.04
2018-07-07T05:25:55.783Z,66.16
2018-07-07T05:28:27.554Z,64.92
2018-07-07T05:30:58.003Z,65.23
2018-07-07T05:33:29.576Z,64.88
2018-07-07T05:36:00.856Z,64.64
2018-07-07T05:38:31.803Z,62.62
2018-07-07T05:41:05.520Z,61.25
2018-07-07T05:43:36.077Z,60.49
2018-07-07T05:46:06.505Z,59.50
2018-07-07T05:48:37.954Z,59.14
2018-07-07T05:51:09.364Z,58.87
2018-07-07T05:53:40.640Z,60.37
2018-07-07T05:56:12.595Z,60.09
2018-07-07T05:58:43.245Z,58.87
2018-07-07T06:01:14.742Z,59.06
2018-07-07T06:03:45.627Z,59.07
2018-07-07T06:06:17.144Z,58.44
2018-07-07T06:08:48.990Z,58.62
2018-07-07T06:11:19.841Z,58.40
2018-07-07T06:13:50.763Z,58.81
2018-07-07T06:16:22.542Z,56.97
2018-07-07T06:18:53.903Z,56.04
2018-07-07T06:21:24.830Z,54.73
2018-07-07T06:23:56.629Z,56.21
2018-07-07T06:26:28.979Z,55.87
2018-07-07T06:28:59.790Z,52.61
2018-07-07T06:31:31.395Z,52.86
2018-07-07T06:34:02.235Z,52.57
2018-07-07T06:36:34.010Z,50.78
2018-07-07T06:39:06.528Z,49.98
2018-07-07T06:41:38.828Z,51.97
2018-07-07T06:44:10.249Z,51.79
2018-07-07T06:46:41.787Z,50.10
2018-07-07T06:49:12.791Z,50.47
2018-07-07T06:51:45.014Z,49.00
2018-07-07T06:54:18.261Z,47.11
2018-07-07T06:56:48.882Z,45.54
2018-07-07T06:59:20.835Z,48.71
2018-07-07T07:01:52.510Z,46.79
2018-07-07T07:04:23.663Z,46.19
2018-07-07T07:06:54.436Z,47.09
2018-07-07T07:09:25.647Z,47.01
2018-07-07T07:11:56.241Z,45.14
2018-07-07T07:14:27.892Z,44.79
2018-07-07T07:16:58.918Z,45.58
2018-07-07T07:19:29.408Z,47.03
2018-07-07T07:22:01.758Z,45.47
2018-07-07T07:24:32.620Z,42.78
2018-07-07T07:27:03.418Z,41.55
2018-07-07T07:29:33.918Z,42.07
2018-07-07T07:32:04.157Z,42.53
2018-07-07T07:34:34.490Z,43.15
2018-07-07T07:37:05.345Z,41.71
2018-07-07T07:39:36.114Z,41.70
2018-07-07T07:42:07.758Z,42.09
2018-07-07T07:44:39.671Z,41.44
2018-07-07T07:47:11.254Z,41.13
2018-07-07T07:49:41.960Z,39.86
2018-07-07T07:52:12.505Z,40.09
2018-07-07T07:54:44.287Z,40.15
2018-07-07T07:57:15.461Z,39.57
2018-07-07T07:59:45.979Z,38.46
2018-07-07T08:02:16.580Z,39.31
2018-07-07T08:04:47.717Z,38.54
2018-07-07T08:07:19.426Z,38.35
2018-07-07T08:09:49.846Z,38.93
2018-07-07T08:12:22.015Z,37.34
2018-07-07T08:14:53.373Z,37.26
2018-07-07T08:17:25.164Z,36.38
2018-07-07T08:19:56.223Z,36.49
2018-07-07T08:22:26.606Z,38.28
2018-07-07T08:24:57.753Z,37.22
2018-07-07T08:27:28.816Z,36.94
2018-07-07T08:29:59.871Z,37.13
2018-07-07T08:32:31.370Z,35.32
2018-07-07T08:35:02.522Z,36.87
2018-07-07T08:37:33.000Z,36.68
2018-07-07T08:40:06.117Z,36.73
2018-07-07T08:42:38.006Z,35.41
2018-07-07T08:45:08.339Z,34.66
2018-07-07T08:47:39.690Z,34.31
2018-07-07T08:50:10.999Z,33.96
2018-07-07T08:52:41.700Z,36.69
2018-07-07T08:55:12.965Z,35.71
2018-07-07T08:57:44.755Z,36.80
2018-07-07T09:00:18.232Z,35.46
2018-07-07T09:02:49.899Z,37.44
2018-07-07T09:05:21.805Z,39.80
2018-07-07T09:07:54.748Z,37.33
2018-07-07T09:10:26.071Z,35.46
2018-07-07T09:12:58.452Z,31.85
2018-07-07T09:15:31.165Z,32.55
2018-07-07T09:18:02.824Z,31.81
2018-07-07T09:20:37.041Z,29.41
2018-07-07T09:23:09.087Z,28.34
2018-07-07T09:25:40.813Z,30.45
2018-07-07T09:28:12.085Z,34.14
2018-07-07T09:30:43.605Z,38.53
2018-07-07T09:33:14.350Z,38.72
2018-07-07T09:35:47.573Z,36.59
2018-07-07T09:38:18.878Z,35.98
2018-07-07T09:40:49.809Z,34.09
2018-07-07T09:43:20.891Z,33.92
2018-07-07T09:45:52.591Z,34.45
2018-07-07T09:48:26.768Z,30.57
2018-07-07T09:50:58.190Z,29.99
2018-07-07T09:53:30.525Z,26.61
2018-07-07T09:56:01.370Z,27.73
2018-07-07T09:58:32.566Z,26.09
2018-07-07T10:01:07.110Z,26.49
2018-07-07T10:03:37.676Z,28.09
2018-07-07T10:06:08.178Z,30.58
2018-07-07T10:08:38.480Z,33.79
2018-07-07T10:11:10.436Z,34.24
2018-07-07T10:13:40.970Z,32.00
2018-07-07T10:16:12.015Z,29.86
2018-07-07T10:18:42.405Z,29.07
2018-07-07T10:21:13.627Z,29.83
2018-07-07T10:23:43.990Z,31.17
2018-07-07T10:26:15.391Z,28.28
2018-07-07T10:28:47.050Z,25.92
2018-07-07T10:31:17.525Z,24.09
2018-07-07T10:33:48.472Z,24.56
2018-07-07T10:36:19.759Z,23.99
2018-07-07T10:38:51.565Z,23.33
2018-07-07T10:41:24.035Z,23.33
2018-07-07T10:43:55.016Z,21.00
2018-07-07T10:46:25.873Z,22.08
2018-07-07T10:48:56.539Z,19.83
2018-07-07T10:51:27.342Z,20.23
2018-07-07T10:53:58.902Z,21.99
2018-07-07T10:56:30.758Z,22.37
2018-07-07T10:59:01.387Z,22.20
2018-07-07T11:01:32.697Z,21.66
2018-07-07T11:04:03.349Z,23.53
2018-07-07T11:06:33.906Z,22.92
2018-07-07T11:09:06.076Z,22.90
2018-07-07T11:11:36.954Z,25.53
2018-07-07T11:14:07.421Z,23.60
2018-07-07T11:16:39.002Z,23.82
2018-07-07T11:19:10.046Z,26.33
2018-07-07T11:21:40.897Z,24.50
2018-07-07T11:24:11.825Z,24.29
2018-07-07T11:26:42.393Z,21.29
2018-07-07T11:29:13.506Z,21.76
2018-07-07T11:31:45.758Z,18.49
2018-07-07T11:34:16.442Z,18.21
2018-07-07T11:36:47.688Z,17.16
2018-07-07T11:39:19.858Z,19.54
2018-07-07T11:42:01.540Z,18.63
2018-07-07T11:44:34.108Z,21.40
2018-07-07T11:47:09.728Z,22.70
2018-07-07T11:49:41.682Z,20.21
2018-07-07T11:52:13.526Z,21.07
2018-07-07T11:54:46.014Z,21.98
2018-07-07T11:57:17.619Z,18.36
2018-07-07T12:00:09.000Z,18.85
2018-07-07T12:02:40.910Z,20.17
2018-07-07T12:05:12.742Z,17.47
2018-07-07T12:07:44.634Z,18.36
2018-07-07T12:10:18.532Z,17.55
2018-07-07T12:12:50.527Z,16.20
2018-07-07T12:15:23.355Z,16.97
2018-07-07T12:17:55.685Z,18.00
2018-07-07T12:20:26.405Z,19.11
2018-07-07T12:22:59.058Z,16.14
2018-07-07T12:25:31.062Z,16.86
2018-07-07T12:28:01.996Z,14.10
2018-07-07T12:30:35.504Z,15.08
2018-07-07T12:33:07.669Z,13.40
2018-07-07T12:35:39.480Z,16.67
2018-07-07T12:38:10.450Z,16.04
2018-07-07T12:40:42.030Z,17.78
2018-07-07T12:43:12.696Z,20.37
2018-07-07T12:48:44.562Z,18.45
2018-07-07T12:51:16.644Z,18.37
2018-07-07T12:53:48.061Z,18.20
2018-07-07T12:56:18.811Z,18.14
2018-07-07T12:58:51.201Z,15.47
2018-07-07T13:01:22.906Z,15.89
2018-07-07T13:03:53.632Z,17.34
2018-07-07T13:06:25.483Z,17.82
2018-07-07T13:08:56.825Z,15.69
2018-07-07T13:11:28.615Z,15.64
2018-07-07T13:13:59.709Z,17.89
2018-07-07T13:16:30.924Z,17.36
2018-07-07T13:19:03.475Z,16.42
2018-07-07T13:21:34.653Z,16.60
2018-07-07T13:24:08.304Z,20.09
2018-07-07T13:26:41.358Z,20.02
2018-07-07T13:29:13.624Z,20.26
2018-07-07T13:31:44.275Z,19.90
2018-07-07T13:34:15.815Z,17.39
2018-07-07T13:36:47.161Z,16.04
2018-07-07T13:39:19.312Z,14.71
2018-07-07T13:41:50.740Z,13.65
2018-07-07T13:44:22.130Z,14.35
2018-07-07T13:46:54.831Z,13.92
2018-07-07T13:49:26.898Z,14.45
2018-07-07T13:52:07.535Z,12.18
2018-07-07T13:54:39.257Z,15.39
2018-07-07T13:57:12.010Z,15.00
2018-07-07T13:59:44.237Z,14.11
2018-07-07T14:02:16.892Z,13.95
2018-07-07T14:04:48.447Z,13.25
2018-07-07T14:07:20.049Z,13.90
2018-07-07T14:09:50.981Z,14.54
2018-07-07T14:12:22.614Z,12.34
2018-07-07T14:14:53.863Z,15.48
2018-07-07T14:17:25.285Z,13.95
2018-07-07T14:19:56.624Z,14.46
2018-07-07T14:22:27.247Z,14.50
2018-07-07T14:24:58.982Z,13.34
2018-07-07T14:27:31.690Z,16.34
2018-07-07T14:30:02.769Z,18.60
2018-07-07T14:32:34.002Z,17.40
2018-07-07T14:35:05.356Z,17.75
2018-07-07T14:37:36.626Z,17.98
2018-07-07T14:40:07.269Z,16.08
2018-07-07T14:42:48.852Z,15.77
2018-07-07T14:45:31.859Z,16.53
2018-07-07T14:48:05.099Z,14.32
2018-07-07T14:50:36.738Z,15.09
2018-07-07T14:53:07.580Z,13.21
2018-07-07T14:55:38.833Z,12.58
2018-07-07T14:58:09.168Z,13.58
2018-07-07T15:00:39.817Z,14.19
2018-07-07T15:03:10.543Z,16.15
2018-07-07T15:05:40.880Z,14.66
2018-07-07T15:08:11.997Z,17.91
2018-07-07T15:10:42.358Z,17.46
2018-07-07T15:13:16.500Z,15.73
2018-07-07T15:15:47.659Z,16.24
2018-07-07T15:18:18.482Z,13.14
2018-07-07T15:20:49.032Z,13.14
2018-07-07T15:23:20.090Z,16.64
2018-07-07T15:25:50.728Z,19.63
2018-07-07T15:28:21.773Z,21.36
2018-07-07T15:30:53.719Z,22.25
2018-07-07T15:33:24.821Z,23.88
2018-07-07T15:35:56.167Z,26.20
2018-07-07T15:38:27.307Z,21.71
2018-07-07T15:40:57.814Z,18.53
2018-07-07T15:43:29.766Z,16.33
2018-07-07T15:46:00.214Z,16.10
2018-07-07T15:48:30.975Z,15.83
2018-07-07T15:51:02.075Z,15.35
2018-07-07T15:53:32.450Z,15.33
2018-07-07T15:56:03.695Z,14.81
2018-07-07T15:58:34.324Z,17.22
2018-07-07T16:01:04.694Z,18.02
2018-07-07T16:03:35.738Z,17.92
2018-07-07T16:06:06.296Z,17.15
2018-07-07T16:08:36.830Z,14.25
2018-07-07T16:11:07.826Z,14.97
2018-07-07T16:13:38.622Z,15.30
2018-07-07T16:16:09.860Z,17.47
2018-07-07T16:18:42.467Z,17.89
2018-07-07T16:21:14.133Z,17.12
2018-07-07T16:23:46.262Z,17.22
2018-07-07T16:26:17.507Z,15.03
2018-07-07T16:28:49.567Z,14.65
2018-07-07T16:31:20.906Z,16.10
2018-07-07T16:33:53.092Z,16.28
2018-07-07T16:36:24.289Z,15.65
2018-07-07T16:38:56.086Z,16.08
2018-07-07T16:41:28.531Z,16.15
2018-07-07T16:43:59.504Z,17.28
2018-07-07T16:46:31.068Z,18.32
2018-07-07T16:49:03.172Z,18.19
2018-07-07T16:51:35.372Z,20.24
2018-07-07T16:54:07.096Z,18.88
2018-07-07T16:56:38.175Z,18.24
2018-07-07T16:59:09.280Z,19.92
2018-07-07T17:01:40.708Z,20.03
2018-07-07T17:04:11.658Z,18.97
2018-07-07T17:06:42.323Z,19.24
2018-07-07T17:09:13.199Z,21.28
2018-07-07T17:11:44.374Z,23.00
2018-07-07T17:14:15.998Z,23.74
2018-07-07T17:16:47.967Z,22.30
2018-07-07T17:19:19.619Z,23.97
2018-07-07T17:21:50.692Z,26.91
2018-07-07T17:24:22.715Z,28.18
2018-07-07T17:26:54.876Z,29.01
2018-07-07T17:29:26.853Z,29.71
2018-07-07T17:31:57.968Z,30.82
2018-07-07T17:34:30.332Z,31.46
2018-07-07T17:37:04.647Z,32.22
2018-07-07T17:39:37.268Z,31.65
2018-07-07T17:42:08.661Z,32.14
2018-07-07T17:44:39.160Z,32.23
2018-07-07T17:47:10.011Z,31.76
2018-07-07T17:49:41.483Z,32.46
2018-07-07T17:52:14.413Z,33.04
2018-07-07T17:54:45.532Z,33.42
2018-07-07T17:57:16.688Z,33.05
2018-07-07T18:02:41.890Z,33.30
2018-07-07T18:05:14.350Z,33.38
2018-07-07T18:07:45.286Z,33.89
2018-07-07T18:10:17.230Z,33.98
2018-07-07T18:12:47.927Z,34.03
2018-07-07T18:15:19.877Z,33.89
2018-07-07T18:17:50.695Z,34.71
2018-07-07T18:20:21.431Z,33.95
2018-07-07T18:22:51.875Z,34.57
2018-07-07T18:25:22.476Z,34.35
2018-07-07T18:27:52.848Z,35.20
2018-07-07T18:30:23.234Z,35.09
2018-07-07T18:32:55.625Z,35.01
2018-07-07T18:35:26.322Z,35.75
2018-07-07T18:37:57.783Z,36.16
2018-07-07T18:40:29.216Z,36.68
2018-07-07T18:42:59.884Z,36.75
2018-07-07T18:45:31.126Z,37.15
2018-07-07T18:48:03.021Z,37.45
2018-07-07T18:50:33.826Z,38.10
2018-07-07T18:53:05.156Z,38.58
2018-07-07T18:55:35.583Z,38.76
2018-07-07T18:58:07.700Z,38.75
2018-07-07T19:00:38.973Z,39.03
2018-07-07T19:05:52.096Z,39.58
2018-07-07T19:08:23.595Z,39.55
2018-07-07T19:10:54.762Z,41.12
2018-07-07T19:13:26.212Z,40.81
2018-07-07T19:15:58.236Z,41.26
2018-07-07T19:18:29.516Z,40.77
2018-07-07T19:21:08.937Z,41.81
2018-07-07T19:23:44.278Z,42.15
2018-07-07T19:26:19.892Z,42.31
2018-07-07T19:28:50.341Z,41.71
2018-07-07T19:31:20.956Z,41.98
2018-07-07T19:33:58.159Z,42.76
2018-07-07T19:36:34.265Z,43.13
2018-07-07T19:39:05.906Z,43.29
2018-07-07T19:41:37.922Z,42.94
2018-07-07T19:44:08.469Z,43.85
2018-07-07T19:46:45.547Z,43.40
2018-07-07T19:49:18.202Z,44.79
2018-07-07T19:51:50.615Z,44.13
2018-07-07T19:54:25.016Z,44.27
2018-07-07T19:56:56.341Z,45.63
2018-07-07T19:59:27.579Z,45.64
2018-07-07T20:01:58.153Z,46.47
2018-07-07T20:04:29.553Z,46.51
2018-07-07T20:06:59.831Z,48.86
2018-07-07T20:09:30.979Z,47.18
2018-07-07T20:12:03.309Z,47.62
2018-07-07T20:14:35.464Z,47.02
2018-07-07T20:17:10.953Z,46.74
2018-07-07T20:21:00.101Z,47.57
2018-07-07T20:23:33.000Z,47.74
2018-07-07T20:26:04.834Z,48.56
2018-07-07T20:28:40.311Z,48.97
2018-07-07T20:31:14.212Z,48.70
2018-07-07T20:33:45.525Z,49.15
2018-07-07T20:36:15.935Z,49.59
2018-07-07T20:38:47.512Z,49.75
2018-07-07T20:41:18.634Z,49.55
2018-07-07T20:43:49.653Z,50.25
2018-07-07T20:46:21.119Z,50.93
2018-07-07T20:48:51.715Z,50.65
2018-07-07T20:51:22.530Z,51.31
2018-07-07T20:53:52.891Z,51.35
2018-07-07T20:56:24.943Z,51.88
2018-07-07T20:58:57.723Z,52.86
2018-07-07T21:01:29.882Z,54.30
2018-07-07T21:04:01.126Z,54.58
2018-07-07T21:06:33.600Z,55.60
2018-07-07T21:09:04.984Z,56.38
2018-07-07T21:11:35.746Z,57.83
2018-07-07T21:14:06.690Z,57.47
2018-07-07T21:16:38.792Z,57.54
2018-07-07T21:19:10.171Z,57.15
2018-07-07T21:21:41.938Z,56.74
2018-07-07T21:24:13.204Z,57.24
2018-07-07T21:26:44.177Z,59.17
2018-07-07T21:29:16.183Z,60.35
2018-07-07T21:31:46.411Z,60.76
2018-07-07T21:34:17.430Z,60.91
2018-07-07T21:36:48.076Z,62.42
2018-07-07T21:39:19.115Z,62.79
2018-07-07T21:41:49.399Z,63.14
2018-07-07T21:44:21.395Z,62.75
2018-07-07T21:46:52.961Z,63.50
2018-07-07T21:49:24.425Z,64.91
2018-07-07T21:51:54.850Z,64.89
2018-07-07T21:54:25.189Z,65.67
2018-07-07T21:56:56.825Z,66.31
2018-07-07T21:59:27.868Z,66.48
2018-07-07T22:02:04.395Z,68.03
2018-07-07T22:04:40.857Z,67.56
2018-07-07T22:07:46.183Z,68.72
2018-07-07T22:10:16.814Z,69.15
2018-07-07T22:12:47.696Z,68.56
2018-07-07T22:15:19.100Z,68.11
2018-07-07T22:17:50.207Z,68.94
2018-07-07T22:20:31.979Z,68.47
2018-07-07T22:23:03.383Z,68.94
2018-07-07T22:25:33.852Z,68.42
2018-07-07T22:28:05.677Z,68.92
2018-07-07T22:30:36.214Z,69.15
2018-07-07T22:33:12.201Z,69.97
2018-07-07T22:35:48.002Z,69.04
2018-07-07T22:38:24.754Z,69.52
2018-07-07T22:40:59.931Z,69.62
2018-07-07T22:43:32.467Z,69.74
2018-07-07T22:46:04.244Z,69.82
2018-07-07T22:48:36.588Z,69.29
2018-07-07T22:51:08.709Z,69.98
2018-07-07T22:53:40.489Z,70.93
2018-07-07T22:56:14.779Z,71.13
2018-07-07T22:58:46.506Z,71.78
2018-07-07T23:01:20.135Z,71.57
2018-07-07T23:03:52.322Z,71.38
2018-07-07T23:06:24.190Z,73.33
2018-07-07T23:08:56.580Z,73.20
2018-07-07T23:11:28.784Z,74.15
2018-07-07T23:14:00.855Z,74.53
2018-07-07T23:16:34.418Z,74.49
2018-07-07T23:19:07.431Z,76.06
2018-07-07T23:21:39.037Z,75.96
2018-07-07T23:24:11.405Z,75.79
2018-07-07T23:26:45.315Z,75.82
2018-07-07T23:29:18.421Z,75.95
2018-07-07T23:31:49.956Z,74.84
2018-07-07T23:34:22.653Z,74.36
2018-07-07T23:36:54.483Z,74.60
2018-07-07T23:39:26.031Z,74.14
2018-07-07T23:41:59.125Z,74.70
2018-07-07T23:44:31.387Z,73.25
2018-07-07T23:47:02.864Z,73.13
2018-07-07T23:49:33.470Z,73.42
2018-07-07T23:52:05.727Z,73.60
2018-07-07T23:54:37.272Z,74.61
2018-07-07T23:57:07.448Z,73.89
2018-07-07T23:59:39.189Z,74.75
